Terminal Aerodrome Forecast
Issued by NWS Portland, OR

Home | Current Version | Previous Version | Text Only | Print | Product List | Glossary On
Versions: 1 2 3 4 5 6 7 8 9 10 11 12 13 14 15 16 17 18 19 20 21 22 23 24 25 26
000
FTUS46 KPQR 232334
TAFSLE
TAF
KSLE 232334Z 2400/2424 29007KT P6SM SCT030 BKN035
     FM240300 36007KT P6SM BKN040
     FM240700 34004KT P6SM FEW015
     FM241800 01009KT P6SM SCT250=

USA.gov is the U.S. government's official web portal to all federal, state and local government web resources and services.